createdAt,value
2024-04-10T00:00:54.550Z,80.02
2024-04-10T00:01:54.223Z,80.22
2024-04-10T00:02:54.418Z,80.63
2024-04-10T00:04:16.696Z,80.63
2024-04-10T00:04:54.591Z,80.63
2024-04-10T00:05:54.737Z,80.94
2024-04-10T00:06:54.377Z,80.94
2024-04-10T00:07:54.636Z,80.98
2024-04-10T00:08:54.308Z,80.98
2024-04-10T00:09:54.533Z,80.98
2024-04-10T00:10:54.322Z,81.08
2024-04-10T00:11:54.553Z,81.08
2024-04-10T00:12:54.183Z,80.88
2024-04-10T00:14:15.441Z,80.98
2024-04-10T00:14:54.157Z,81.08
2024-04-10T00:15:54.414Z,81.08
2024-04-10T00:16:54.136Z,81.38
2024-04-10T00:17:54.410Z,81.90
2024-04-10T00:18:54.240Z,81.70
2024-04-10T00:19:54.301Z,81.59
2024-04-10T00:20:54.005Z,81.70
2024-04-10T00:21:54.227Z,81.70
2024-04-10T00:22:54.447Z,81.63
2024-04-10T00:24:15.648Z,81.84
2024-04-10T00:24:54.431Z,81.84
2024-04-10T00:25:54.168Z,81.94
2024-04-10T00:26:54.382Z,81.94
2024-04-10T00:27:54.122Z,82.24
2024-04-10T00:28:54.375Z,82.04
2024-04-10T00:29:54.082Z,81.84
2024-04-10T00:30:54.271Z,81.94
2024-04-10T00:31:54.064Z,82.14
2024-04-10T00:33:00.985Z,82.24
2024-04-10T00:34:16.372Z,82.45
2024-04-10T00:34:54.047Z,82.45
2024-04-10T00:35:54.231Z,82.65
2024-04-10T00:36:53.949Z,82.55
2024-04-10T00:37:54.233Z,82.55
2024-04-10T00:38:53.928Z,82.45
2024-04-10T00:39:54.143Z,82.76
2024-04-10T00:40:53.884Z,82.86
2024-04-10T00:41:54.076Z,82.76
2024-04-10T00:42:53.807Z,82.76
2024-04-10T00:44:15.564Z,83.06
2024-04-10T00:44:53.769Z,82.96
2024-04-10T00:45:54.001Z,82.76
2024-04-10T00:47:01.682Z,82.90
2024-04-10T00:47:54.009Z,83.20
2024-04-10T00:48:54.156Z,83.10
2024-04-10T00:49:53.784Z,83.10
2024-04-10T00:50:53.936Z,83.31
2024-04-10T00:51:54.152Z,83.20
2024-04-10T00:52:53.942Z,83.20
2024-04-10T00:54:16.090Z,83.51
2024-04-10T00:54:53.878Z,83.51
2024-04-10T00:55:54.143Z,83.51
2024-04-10T00:56:53.825Z,83.61
2024-04-10T00:57:54.037Z,83.72
2024-04-10T00:58:53.764Z,83.72
2024-04-10T00:59:53.978Z,83.51
2024-04-10T01:00:53.758Z,83.51
2024-04-10T01:01:53.974Z,83.82
2024-04-10T01:02:53.732Z,83.82
2024-04-10T01:04:14.724Z,84.03
2024-04-10T01:04:53.788Z,84.03
2024-04-10T01:05:53.882Z,84.17
2024-04-10T01:06:53.586Z,83.96
2024-04-10T01:07:53.830Z,83.86
2024-04-10T01:08:53.534Z,84.17
2024-04-10T01:09:53.789Z,84.27
2024-04-10T01:10:53.511Z,84.27
2024-04-10T01:11:54.054Z,83.96
2024-04-10T01:12:53.454Z,84.06
2024-04-10T01:14:15.233Z,84.27
2024-04-10T01:15:01.196Z,84.27
2024-04-10T01:15:53.507Z,84.47
2024-04-10T01:16:53.946Z,84.68
2024-04-10T01:17:53.579Z,84.68
2024-04-10T01:18:53.693Z,84.68
2024-04-10T01:19:53.420Z,84.78
2024-04-10T01:20:53.630Z,84.78
2024-04-10T01:21:53.843Z,84.99
2024-04-10T01:22:53.615Z,84.78
2024-04-10T01:24:19.073Z,84.88
2024-04-10T01:24:53.788Z,85.03
2024-04-10T01:25:53.569Z,85.03
2024-04-10T01:26:53.753Z,85.33
2024-04-10T01:27:53.466Z,85.30
2024-04-10T01:28:53.735Z,85.19
2024-04-10T01:29:53.412Z,85.19
2024-04-10T01:30:53.654Z,85.19
2024-04-10T01:31:53.476Z,85.39
2024-04-10T01:32:54.156Z,85.30
2024-04-10T01:34:15.544Z,85.19
2024-04-10T01:34:53.720Z,85.30
2024-04-10T01:35:53.563Z,85.09
2024-04-10T01:36:53.690Z,85.19
2024-04-10T01:37:53.526Z,85.09
2024-04-10T01:38:53.607Z,84.88
2024-04-10T01:39:53.413Z,84.88
2024-04-10T01:40:53.773Z,84.74
2024-04-10T01:41:53.444Z,84.64
2024-04-10T01:42:53.607Z,84.64
2024-04-10T01:44:15.452Z,84.53
2024-04-10T01:44:53.732Z,84.58
2024-04-10T01:45:53.390Z,84.58
2024-04-10T01:46:53.295Z,84.78
2024-04-10T01:47:53.563Z,84.78
2024-04-10T01:48:53.297Z,84.99
2024-04-10T01:49:53.439Z,84.99
2024-04-10T01:50:53.285Z,85.09
2024-04-10T01:51:53.659Z,84.99
2024-04-10T01:52:53.619Z,85.09
2024-04-10T01:54:13.676Z,84.99
2024-04-10T01:54:53.411Z,84.88
2024-04-10T01:55:53.213Z,84.88
2024-04-10T01:56:53.380Z,84.88
2024-04-10T01:57:53.208Z,85.09
2024-04-10T01:58:53.503Z,85.09
2024-04-10T01:59:53.069Z,85.19
2024-04-10T02:00:53.380Z,85.30
2024-04-10T02:01:53.086Z,85.50
2024-04-10T02:02:53.424Z,85.71
2024-04-10T02:04:15.111Z,86.01
2024-04-10T02:04:53.282Z,85.80
2024-04-10T02:05:52.983Z,85.91
2024-04-10T02:06:53.204Z,86.01
2024-04-10T02:07:53.414Z,86.32
2024-04-10T02:08:53.114Z,86.25
2024-04-10T02:09:53.331Z,86.46
2024-04-10T02:10:53.124Z,86.57
2024-04-10T02:11:53.404Z,86.46
2024-04-10T02:12:53.042Z,86.87
2024-04-10T02:14:13.859Z,86.77
2024-04-10T02:14:53.165Z,86.66
2024-04-10T02:15:52.884Z,86.98
2024-04-10T02:16:53.253Z,87.08
2024-04-10T02:17:53.024Z,87.18
2024-04-10T02:18:53.088Z,87.18
2024-04-10T02:19:53.311Z,87.08
2024-04-10T02:20:53.015Z,87.08
2024-04-10T02:21:52.742Z,87.08
2024-04-10T02:22:53.007Z,87.18
2024-04-10T02:24:14.710Z,87.28
2024-04-10T02:24:52.984Z,87.32
2024-04-10T02:25:53.233Z,87.32
2024-04-10T02:26:52.914Z,87.49
2024-04-10T02:27:53.145Z,87.49
2024-04-10T02:28:52.886Z,87.49
2024-04-10T02:29:53.085Z,87.43
2024-04-10T02:30:52.807Z,87.63
2024-04-10T02:31:53.100Z,87.53
2024-04-10T02:32:53.068Z,87.63
2024-04-10T02:34:15.102Z,87.73
2024-04-10T02:34:52.796Z,87.73
2024-04-10T02:35:53.000Z,87.63
2024-04-10T02:36:52.718Z,87.63
2024-04-10T02:37:52.952Z,87.73
2024-04-10T02:38:52.656Z,87.94
2024-04-10T02:39:52.876Z,87.94
2024-04-10T02:40:52.628Z,87.79
2024-04-10T02:41:52.833Z,87.70
2024-04-10T02:42:53.268Z,87.79
2024-04-10T02:44:12.863Z,87.79
2024-04-10T02:44:54.600Z,87.70
2024-04-10T02:45:54.903Z,87.70
2024-04-10T02:46:54.622Z,87.49
2024-04-10T02:47:53.721Z,87.49
2024-04-10T02:48:54.661Z,87.49
2024-04-10T02:49:53.991Z,87.38
2024-04-10T02:50:54.735Z,87.28
2024-04-10T02:51:54.485Z,87.28
2024-04-10T02:52:54.824Z,87.28
2024-04-10T02:54:12.638Z,87.18
2024-04-10T02:54:53.636Z,87.28
2024-04-10T02:55:53.667Z,87.59
2024-04-10T02:56:53.898Z,87.70
2024-04-10T02:57:53.405Z,87.79
2024-04-10T02:58:54.502Z,87.79
2024-04-10T02:59:54.733Z,88.00
2024-04-10T03:00:52.755Z,88.00
2024-04-10T03:01:54.411Z,87.79
2024-04-10T03:02:54.741Z,88.00
2024-04-10T03:04:12.452Z,88.31
2024-04-10T03:04:54.653Z,88.41
2024-04-10T03:05:54.436Z,88.37
2024-04-10T03:06:53.706Z,88.27
2024-04-10T03:07:54.490Z,88.37
2024-04-10T03:08:54.306Z,88.47
2024-04-10T03:09:54.172Z,88.47
2024-04-10T03:10:53.076Z,88.47
2024-04-10T03:11:54.733Z,88.27
2024-04-10T03:12:53.460Z,88.37
2024-04-10T03:14:12.257Z,88.37
2024-04-10T03:14:54.437Z,88.37
2024-04-10T03:15:54.205Z,88.37
2024-04-10T03:16:54.601Z,88.37
2024-04-10T03:17:54.334Z,88.37
2024-04-10T03:18:53.619Z,88.37
2024-04-10T03:19:53.160Z,88.37
2024-04-10T03:20:54.615Z,88.47
2024-04-10T03:21:53.412Z,88.47
2024-04-10T03:22:56.032Z,88.37
2024-04-10T03:24:13.420Z,88.37
2024-04-10T03:24:54.174Z,88.37
2024-04-10T03:25:54.583Z,88.37
2024-04-10T03:26:54.296Z,88.27
2024-04-10T03:27:54.069Z,88.27
2024-04-10T03:28:54.439Z,88.17
2024-04-10T03:29:53.166Z,88.06
2024-04-10T03:30:54.389Z,88.17
2024-04-10T03:31:54.234Z,88.17
2024-04-10T03:32:53.296Z,88.27
2024-04-10T03:34:12.369Z,88.27
2024-04-10T03:34:53.516Z,88.27
2024-04-10T03:35:54.241Z,88.27
2024-04-10T03:36:54.029Z,88.27
2024-04-10T03:37:54.331Z,88.17
2024-04-10T03:38:54.041Z,88.06
2024-04-10T03:39:53.315Z,88.17
2024-04-10T03:40:53.153Z,88.06
2024-04-10T03:41:54.014Z,88.17
2024-04-10T03:42:54.272Z,88.17
2024-04-10T03:44:12.118Z,88.27
2024-04-10T03:44:54.317Z,88.27
2024-04-10T03:45:53.070Z,88.27
2024-04-10T03:46:53.472Z,88.27
2024-04-10T03:47:54.361Z,88.37
2024-04-10T03:48:54.027Z,88.47
2024-04-10T03:49:53.254Z,88.47
2024-04-10T03:50:52.366Z,88.57
2024-04-10T03:51:53.257Z,88.68
2024-04-10T03:52:53.139Z,88.57
2024-04-10T03:54:11.825Z,88.68
2024-04-10T03:54:54.033Z,88.68
2024-04-10T03:55:53.887Z,88.68
2024-04-10T03:56:54.085Z,88.78
2024-04-10T03:57:52.937Z,88.78
2024-04-10T03:58:53.294Z,88.78
2024-04-10T03:59:52.702Z,88.88
2024-04-10T04:00:53.796Z,88.98
2024-04-10T04:01:54.073Z,88.88
2024-04-10T04:02:53.901Z,88.98
2024-04-10T04:04:12.120Z,89.09
2024-04-10T04:04:53.824Z,89.09
2024-04-10T04:05:53.580Z,89.19
2024-04-10T04:06:53.841Z,89.29
2024-04-10T04:07:54.202Z,89.43
2024-04-10T04:08:53.899Z,89.54
2024-04-10T04:09:52.654Z,89.64
2024-04-10T04:10:52.820Z,89.64
2024-04-10T04:11:53.851Z,89.64
2024-04-10T04:12:53.518Z,89.64
2024-04-10T04:14:11.851Z,89.84
2024-04-10T04:14:52.310Z,89.84
2024-04-10T04:15:52.378Z,89.84
2024-04-10T04:16:52.609Z,89.84
2024-04-10T04:17:52.965Z,89.84
2024-04-10T04:18:53.159Z,89.84
2024-04-10T04:19:53.933Z,89.95
2024-04-10T04:20:53.739Z,90.05
2024-04-10T04:21:52.966Z,90.05
2024-04-10T04:22:53.859Z,90.16
2024-04-10T04:24:20.661Z,90.40
2024-04-10T04:24:53.364Z,90.40
2024-04-10T04:25:52.763Z,90.40
2024-04-10T04:26:53.543Z,90.50
2024-04-10T04:27:52.808Z,90.61
2024-04-10T04:28:53.653Z,90.71
2024-04-10T04:29:53.873Z,90.81
2024-04-10T04:30:52.611Z,90.91
2024-04-10T04:31:53.433Z,90.81
2024-04-10T04:32:53.331Z,90.85
2024-04-10T04:34:11.640Z,91.06
2024-04-10T04:34:53.686Z,91.16
2024-04-10T04:35:53.430Z,91.16
2024-04-10T04:36:53.742Z,91.06
2024-04-10T04:37:53.516Z,91.27
2024-04-10T04:38:52.584Z,91.57
2024-04-10T04:39:52.623Z,91.67
2024-04-10T04:40:53.412Z,91.78
2024-04-10T04:41:53.606Z,91.88
2024-04-10T04:42:53.420Z,91.99
2024-04-10T04:44:13.806Z,92.19
2024-04-10T04:44:52.431Z,92.19
2024-04-10T04:45:52.667Z,92.23
2024-04-10T04:46:53.025Z,92.23
2024-04-10T04:47:53.281Z,92.33
2024-04-10T04:48:53.186Z,92.44
2024-04-10T04:49:53.363Z,92.44
2024-04-10T04:50:53.988Z,92.54
2024-04-10T04:51:51.363Z,92.64
2024-04-10T04:52:51.742Z,92.64
2024-04-10T04:54:12.297Z,92.85
2024-04-10T04:54:53.644Z,92.85
2024-04-10T04:55:53.402Z,92.85
2024-04-10T04:56:52.222Z,92.85
2024-04-10T04:57:52.499Z,92.95
2024-04-10T04:58:53.406Z,93.05
2024-04-10T04:59:53.070Z,93.05
2024-04-10T05:00:53.421Z,93.05
2024-04-10T05:01:53.190Z,93.05
2024-04-10T05:02:52.092Z,92.95
2024-04-10T05:04:11.259Z,92.95
2024-04-10T05:04:53.480Z,92.95
2024-04-10T05:05:52.722Z,92.95
2024-04-10T05:06:53.483Z,92.95
2024-04-10T05:07:53.323Z,92.95
2024-04-10T05:08:53.026Z,92.95
2024-04-10T05:09:51.828Z,92.95
2024-04-10T05:10:51.172Z,92.85
2024-04-10T05:11:51.511Z,92.85
2024-04-10T05:12:52.562Z,92.85
2024-04-10T05:14:11.370Z,92.85
2024-04-10T05:14:52.120Z,92.74
2024-04-10T05:15:52.423Z,92.74
2024-04-10T05:16:53.182Z,92.74
2024-04-10T05:17:53.154Z,92.64
2024-04-10T05:18:53.220Z,92.64
2024-04-10T05:19:51.422Z,92.54
2024-04-10T05:20:52.376Z,92.54
2024-04-10T05:21:52.057Z,92.54
2024-04-10T05:22:51.389Z,92.54
2024-04-10T05:24:13.082Z,92.54
2024-04-10T05:24:51.324Z,92.44
2024-04-10T05:25:50.516Z,92.33
2024-04-10T05:26:51.319Z,92.33
2024-04-10T05:27:51.370Z,92.44
2024-04-10T05:28:52.301Z,92.23
2024-04-10T05:29:51.825Z,92.23
2024-04-10T05:30:53.087Z,92.27
2024-04-10T05:31:52.268Z,92.33
2024-04-10T05:32:51.022Z,92.33
2024-04-10T05:34:11.205Z,92.33
2024-04-10T05:34:51.752Z,92.44
2024-04-10T05:35:53.035Z,92.48
2024-04-10T05:36:52.788Z,92.44
2024-04-10T05:37:51.240Z,92.44
2024-04-10T05:38:52.259Z,92.44
2024-04-10T05:39:51.217Z,92.44
2024-04-10T05:40:51.719Z,92.33
2024-04-10T05:41:52.155Z,92.13
2024-04-10T05:42:52.128Z,92.13
2024-04-10T05:44:10.240Z,92.03
2024-04-10T05:44:51.113Z,91.93
2024-04-10T05:45:51.214Z,91.93
2024-04-10T05:46:52.173Z,91.82
2024-04-10T05:47:51.421Z,91.82
2024-04-10T05:48:52.311Z,91.67
2024-04-10T05:49:52.111Z,91.57
2024-04-10T05:50:50.882Z,91.47
2024-04-10T05:51:51.092Z,91.47
2024-04-10T05:52:51.082Z,91.37
2024-04-10T05:54:10.800Z,91.16
2024-04-10T05:54:52.563Z,91.06
2024-04-10T05:55:51.618Z,90.91
2024-04-10T05:56:52.602Z,90.81
2024-04-10T05:57:51.856Z,90.61
2024-04-10T05:58:52.648Z,90.50
2024-04-10T05:59:52.864Z,90.36
2024-04-10T06:00:54.978Z,90.26
2024-04-10T06:01:52.960Z,89.95
2024-04-10T06:02:52.864Z,89.84
2024-04-10T06:04:11.996Z,89.75
2024-04-10T06:04:58.011Z,89.50
2024-04-10T06:05:50.729Z,89.50
2024-04-10T06:06:50.442Z,89.39
2024-04-10T06:07:50.701Z,89.15
2024-04-10T06:08:50.378Z,88.94
2024-04-10T06:09:50.604Z,88.84
2024-04-10T06:10:50.877Z,88.53
2024-04-10T06:11:50.653Z,88.29
2024-04-10T06:12:50.762Z,88.18
2024-04-10T06:14:12.539Z,87.53
2024-04-10T06:14:50.746Z,87.08
2024-04-10T06:15:50.475Z,86.77
2024-04-10T06:16:50.763Z,86.02
2024-04-10T06:17:50.464Z,85.40
2024-04-10T06:18:50.626Z,85.06
2024-04-10T06:19:50.439Z,84.65
2024-04-10T06:20:50.574Z,84.03
2024-04-10T06:21:50.304Z,83.73
2024-04-10T06:22:50.550Z,83.42
2024-04-10T06:24:12.725Z,83.32
2024-04-10T06:24:50.513Z,83.42
2024-04-10T06:25:50.291Z,83.32
2024-04-10T06:26:50.426Z,83.32
2024-04-10T06:27:50.646Z,83.32
2024-04-10T06:28:50.455Z,83.32
2024-04-10T06:29:50.584Z,83.22
2024-04-10T06:30:50.321Z,83.05
2024-04-10T06:31:50.564Z,83.25
2024-04-10T06:32:50.387Z,83.25
2024-04-10T06:34:12.739Z,83.36
2024-04-10T06:34:52.252Z,83.66
2024-04-10T06:35:50.512Z,83.76
2024-04-10T06:36:50.230Z,83.87
2024-04-10T06:37:50.479Z,83.76
2024-04-10T06:38:50.167Z,83.62
2024-04-10T06:39:50.382Z,83.69
2024-04-10T06:40:50.187Z,83.18
2024-04-10T06:41:50.367Z,83.24
2024-04-10T06:42:50.082Z,82.83
2024-04-10T06:44:10.627Z,81.77
2024-04-10T06:44:50.116Z,81.43
2024-04-10T06:45:50.334Z,81.23
2024-04-10T06:46:50.143Z,80.68
2024-04-10T06:47:51.797Z,79.86
2024-04-10T06:48:50.275Z,79.62
2024-04-10T06:49:50.921Z,79.21
2024-04-10T06:50:50.079Z,78.66
2024-04-10T06:51:50.283Z,77.95
2024-04-10T06:52:50.070Z,77.40
2024-04-10T06:54:12.232Z,77.37
2024-04-10T06:54:50.036Z,77.26
2024-04-10T06:55:50.259Z,77.03
2024-04-10T06:56:50.003Z,76.18
2024-04-10T06:57:50.182Z,74.52
2024-04-10T06:58:49.962Z,74.18
2024-04-10T06:59:50.177Z,74.41
2024-04-10T07:00:51.348Z,73.60
2024-04-10T07:01:51.040Z,73.97
2024-04-10T07:02:50.390Z,73.16
2024-04-10T07:04:12.121Z,72.92
2024-04-10T07:04:51.264Z,73.02
2024-04-10T07:05:50.349Z,72.17
2024-04-10T07:06:49.831Z,71.26
2024-04-10T07:07:50.076Z,71.44
2024-04-10T07:08:49.842Z,71.33
2024-04-10T07:09:49.988Z,70.11
2024-04-10T07:10:50.343Z,70.79
2024-04-10T07:11:50.005Z,70.48
2024-04-10T07:12:50.166Z,69.57
2024-04-10T07:14:09.967Z,69.03
2024-04-10T07:14:50.092Z,68.23
2024-04-10T07:15:49.845Z,68.49
2024-04-10T07:16:50.144Z,68.06
2024-04-10T07:17:49.927Z,67.85
2024-04-10T07:18:50.033Z,67.22
2024-04-10T07:19:49.851Z,67.08
2024-04-10T07:20:49.950Z,66.75
2024-04-10T07:21:49.672Z,66.21
2024-04-10T07:22:49.964Z,64.87
2024-04-10T07:24:10.133Z,63.93
2024-04-10T07:24:49.853Z,62.79
2024-04-10T07:25:50.119Z,62.45
2024-04-10T07:26:49.843Z,61.99
2024-04-10T07:27:49.999Z,60.68
2024-04-10T07:28:49.740Z,60.05
2024-04-10T07:29:49.931Z,58.91
2024-04-10T07:30:49.666Z,59.08
2024-04-10T07:31:49.964Z,58.95
2024-04-10T07:32:49.758Z,57.12
2024-04-10T07:34:09.975Z,56.69
2024-04-10T07:34:49.618Z,56.26
2024-04-10T07:35:49.808Z,56.36
2024-04-10T07:36:50.239Z,56.56
2024-04-10T07:37:49.853Z,55.93
2024-04-10T07:38:49.491Z,54.63
2024-04-10T07:39:49.706Z,54.93
2024-04-10T07:40:49.943Z,54.10
2024-04-10T07:41:49.724Z,53.30
2024-04-10T07:42:49.898Z,54.77
2024-04-10T07:44:09.756Z,53.55
2024-04-10T07:44:49.907Z,54.15
2024-04-10T07:45:49.570Z,52.92
2024-04-10T07:46:50.070Z,51.79
2024-04-10T07:47:49.688Z,52.17
2024-04-10T07:48:49.938Z,51.25
2024-04-10T07:49:49.578Z,51.12
2024-04-10T07:50:49.701Z,50.39
2024-04-10T07:51:49.416Z,50.17
2024-04-10T07:52:49.670Z,49.57
2024-04-10T07:54:19.071Z,50.02
2024-04-10T07:54:48.793Z,49.90
2024-04-10T07:55:49.763Z,48.50
2024-04-10T07:56:49.753Z,47.20
2024-04-10T07:57:49.510Z,48.08
2024-04-10T07:58:49.770Z,46.98
2024-04-10T07:59:51.384Z,47.88
2024-04-10T08:00:49.733Z,47.38
2024-04-10T08:01:49.424Z,47.06
2024-04-10T08:02:49.736Z,45.96
2024-04-10T08:04:09.698Z,45.84
2024-04-10T08:04:49.658Z,45.66
2024-04-10T08:05:49.436Z,46.68
2024-04-10T08:06:49.514Z,46.08
2024-04-10T08:07:49.239Z,45.86
2024-04-10T08:08:49.455Z,45.47
2024-04-10T08:09:49.172Z,47.27
2024-04-10T08:10:49.471Z,47.57
2024-04-10T08:11:51.591Z,46.75
2024-04-10T08:12:54.607Z,46.62
2024-04-10T08:14:09.443Z,49.01
2024-04-10T08:14:49.588Z,50.06
2024-04-10T08:15:49.296Z,52.24
2024-04-10T08:16:49.594Z,54.03
2024-04-10T08:17:49.226Z,54.43
2024-04-10T08:18:49.534Z,53.09
2024-04-10T08:19:49.178Z,53.98
2024-04-10T08:20:49.405Z,55.44
2024-04-10T08:21:49.101Z,55.97
2024-04-10T08:22:49.347Z,56.98
2024-04-10T08:24:09.626Z,57.81
2024-04-10T08:24:49.278Z,57.91
2024-04-10T08:25:49.013Z,57.54
2024-04-10T08:26:49.228Z,57.61
2024-04-10T08:27:49.444Z,57.43
2024-04-10T08:28:49.169Z,57.54
2024-04-10T08:29:49.442Z,57.67
2024-04-10T08:30:49.114Z,57.03
2024-04-10T08:31:49.334Z,54.41
2024-04-10T08:32:49.258Z,55.11
2024-04-10T08:34:09.567Z,53.75
2024-04-10T08:34:49.497Z,54.17
2024-04-10T08:35:49.235Z,52.47
2024-04-10T08:36:49.065Z,52.51
2024-04-10T08:40:07.716Z,53.55
2024-04-10T08:40:19.792Z,48.84
2024-04-10T08:42:16.418Z,47.74
2024-04-10T08:42:23.213Z,46.35
2024-04-10T08:43:23.069Z,46.80
2024-04-10T08:44:23.251Z,46.89
2024-04-10T08:48:11.105Z,46.11
2024-04-10T08:48:17.497Z,42.77
2024-04-10T08:49:18.689Z,41.71
2024-04-10T08:50:34.389Z,42.86
2024-04-10T08:51:18.596Z,43.08
2024-04-10T08:52:18.335Z,44.46
2024-04-10T08:53:17.596Z,44.99
2024-04-10T08:54:17.154Z,44.17
2024-04-10T08:55:18.657Z,44.05
2024-04-10T08:56:17.901Z,44.91
2024-04-10T08:57:36.693Z,44.13
2024-04-10T08:58:17.357Z,44.29
2024-04-10T08:59:17.653Z,44.39
2024-04-10T09:00:18.478Z,46.14
2024-04-10T09:01:18.613Z,46.66
2024-04-10T09:02:18.372Z,46.30
2024-04-10T09:03:18.695Z,45.65
2024-04-10T09:04:18.504Z,44.75
2024-04-10T09:05:17.697Z,45.79
2024-04-10T09:06:18.424Z,46.09
2024-04-10T09:07:36.179Z,44.67
2024-04-10T09:08:17.388Z,44.63
2024-04-10T09:09:17.641Z,43.95
2024-04-10T09:10:18.168Z,43.11
2024-04-10T09:11:17.327Z,41.22
2024-04-10T09:12:17.736Z,42.67
2024-04-10T09:13:18.360Z,42.11
2024-04-10T09:14:18.120Z,41.30
2024-04-10T09:15:18.385Z,41.44
2024-04-10T09:16:16.971Z,39.57
2024-04-10T09:17:36.488Z,40.18
2024-04-10T09:18:18.189Z,40.56
2024-04-10T09:19:18.660Z,38.64
2024-04-10T09:20:18.337Z,39.49
2024-04-10T09:21:18.412Z,38.28
2024-04-10T09:22:17.167Z,37.47
2024-04-10T09:23:17.331Z,37.15
2024-04-10T09:24:17.671Z,38.43
2024-04-10T09:25:36.033Z,39.09
2024-04-10T09:26:18.331Z,38.62
2024-04-10T09:27:36.032Z,39.72
2024-04-10T09:28:16.977Z,41.66
2024-04-10T09:29:17.056Z,42.41
2024-04-10T09:30:17.070Z,42.87
2024-04-10T09:31:18.079Z,44.43
2024-04-10T09:32:18.382Z,45.80
2024-04-10T09:33:18.171Z,46.48
2024-04-10T09:34:32.943Z,45.87
2024-04-10T09:35:18.140Z,44.11
2024-04-10T09:36:17.899Z,43.57
2024-04-10T09:37:36.175Z,44.96
2024-04-10T09:38:17.430Z,46.18
2024-04-10T09:39:18.128Z,47.53
2024-04-10T09:40:15.959Z,46.34
2024-04-10T09:41:17.305Z,46.08
2024-04-10T09:42:18.044Z,45.47
2024-04-10T09:43:54.713Z,42.18
2024-04-10T09:44:16.208Z,41.28
2024-04-10T09:48:19.746Z,39.41
2024-04-10T09:48:25.714Z,36.29
2024-04-10T09:49:46.345Z,36.94
2024-04-10T09:50:25.082Z,37.98
2024-04-10T09:51:25.248Z,39.86
2024-04-10T09:52:25.481Z,41.25
2024-04-10T09:58:44.955Z,42.13
2024-04-10T09:58:51.671Z,34.27
2024-04-10T09:59:52.696Z,35.22
2024-04-10T10:00:51.847Z,35.27
2024-04-10T10:04:39.055Z,36.88
2024-04-10T10:04:45.994Z,33.90
2024-04-10T10:06:04.741Z,33.80
2024-04-10T10:06:46.325Z,34.46
2024-04-10T10:07:46.231Z,36.73
2024-04-10T10:08:46.403Z,38.31
2024-04-10T10:10:00.652Z,39.03
2024-04-10T10:10:46.397Z,37.38
2024-04-10T10:11:45.431Z,38.25
2024-04-10T10:12:46.360Z,38.90
2024-04-10T10:13:46.209Z,40.95
2024-04-10T10:14:46.479Z,41.82
2024-04-10T10:16:04.809Z,42.77
2024-04-10T10:16:46.450Z,42.99
2024-04-10T10:17:53.933Z,43.52
2024-04-10T10:18:47.575Z,44.04
2024-04-10T10:19:46.282Z,45.26
2024-04-10T10:20:45.646Z,45.77
2024-04-10T10:22:38.873Z,44.70
2024-04-10T10:22:45.371Z,43.05
2024-04-10T10:23:46.588Z,42.32
2024-04-10T10:24:45.045Z,42.24
2024-04-10T10:26:04.578Z,42.55
2024-04-10T10:26:46.325Z,42.69
2024-04-10T10:27:45.594Z,44.12
2024-04-10T10:28:46.356Z,44.95
2024-04-10T10:29:46.234Z,43.90
2024-04-10T10:30:46.701Z,43.54
2024-04-10T10:31:46.265Z,44.44
2024-04-10T10:38:41.699Z,43.93
2024-04-10T10:38:48.641Z,35.02
2024-04-10T10:39:49.281Z,34.23
2024-04-10T10:41:09.124Z,35.92
2024-04-10T10:41:50.280Z,36.57
2024-04-10T10:42:49.032Z,38.01
2024-04-10T10:43:48.297Z,39.16
2024-04-10T10:46:24.076Z,39.98
2024-04-10T10:46:28.827Z,37.54
2024-04-10T10:47:29.656Z,37.60
2024-04-10T10:48:29.783Z,38.54
2024-04-10T10:49:29.607Z,39.90
2024-04-10T10:50:29.795Z,40.83
2024-04-10T10:51:51.359Z,41.02
2024-04-10T10:52:29.732Z,41.63
2024-04-10T10:53:35.790Z,42.76
2024-04-10T10:54:29.547Z,43.27
2024-04-10T10:55:29.267Z,42.69
2024-04-10T10:57:28.479Z,42.41
2024-04-10T10:57:34.687Z,39.88
2024-04-10T10:58:34.690Z,39.02
2024-04-10T10:59:35.789Z,39.76
2024-04-10T11:00:35.089Z,40.01
2024-04-10T11:01:53.731Z,41.05
2024-04-10T11:02:36.011Z,41.88
2024-04-10T11:03:35.775Z,41.09
2024-04-10T11:04:36.174Z,41.60
2024-04-10T11:05:35.786Z,41.51
2024-04-10T11:06:34.761Z,42.13
2024-04-10T11:07:35.729Z,42.94
2024-04-10T11:08:36.040Z,43.34
2024-04-10T11:09:35.307Z,44.06
2024-04-10T11:10:59.641Z,43.04
2024-04-10T11:21:40.461Z,41.39
2024-04-10T11:21:47.197Z,29.33
2024-04-10T11:22:48.485Z,32.89
2024-04-10T11:23:48.319Z,34.27
2024-04-10T11:26:14.021Z,35.14
2024-04-10T11:27:20.285Z,34.00
2024-04-10T11:27:25.013Z,33.17
2024-04-10T11:28:26.743Z,32.78
2024-04-10T11:29:25.984Z,32.70
2024-04-10T11:30:25.663Z,33.39
2024-04-10T11:31:46.503Z,33.21
2024-04-10T11:32:25.798Z,33.21
2024-04-10T11:33:26.078Z,33.00
2024-04-10T11:34:25.751Z,33.89
2024-04-10T11:35:52.952Z,33.00
2024-04-10T11:36:25.593Z,33.56
2024-04-10T11:37:45.294Z,32.95
2024-04-10T11:38:29.607Z,32.64
2024-04-10T11:40:16.795Z,32.12
2024-04-10T11:40:24.881Z,31.23
2024-04-10T11:42:14.112Z,32.78
2024-04-10T11:42:24.874Z,33.28
2024-04-10T11:43:25.580Z,33.64
2024-04-10T11:44:25.850Z,33.85
2024-04-10T11:45:25.531Z,33.83
2024-04-10T11:46:25.755Z,33.52
2024-04-10T11:47:25.600Z,34.20
2024-04-10T11:48:27.812Z,33.19
2024-04-10T11:49:46.175Z,33.29
2024-04-10T11:50:25.761Z,33.90
2024-04-10T11:51:47.418Z,34.80
2024-04-10T11:52:25.677Z,33.21
2024-04-10T11:53:25.448Z,34.71
2024-04-10T11:54:25.636Z,32.71
2024-04-10T11:55:25.366Z,32.73
2024-04-10T11:56:25.610Z,33.42
2024-04-10T11:57:25.299Z,32.05
2024-04-10T11:58:25.503Z,32.96
2024-04-10T11:59:25.505Z,34.48
2024-04-10T12:00:25.487Z,33.90
2024-04-10T12:01:45.226Z,33.81
2024-04-10T12:02:25.531Z,35.52
2024-04-10T12:03:25.276Z,35.13
2024-04-10T12:04:25.467Z,34.63
2024-04-10T12:05:25.696Z,35.31
2024-04-10T12:06:25.442Z,34.83
2024-04-10T12:07:25.575Z,37.04
2024-04-10T12:08:25.313Z,36.14
2024-04-10T12:09:25.505Z,37.04
2024-04-10T12:10:25.216Z,37.25
2024-04-10T12:11:47.037Z,36.49
2024-04-10T12:12:25.300Z,37.68
2024-04-10T12:13:25.433Z,38.52
2024-04-10T12:14:25.190Z,38.14
2024-04-10T12:15:25.397Z,37.23
2024-04-10T12:16:25.107Z,37.90
2024-04-10T12:17:25.432Z,38.07
2024-04-10T12:18:32.444Z,36.27
2024-04-10T12:19:25.036Z,38.05
2024-04-10T12:20:25.463Z,37.35
2024-04-10T12:21:45.489Z,36.44
2024-04-10T12:22:25.201Z,35.54
2024-04-10T12:23:25.483Z,35.86
2024-04-10T12:24:25.145Z,35.96
2024-04-10T12:25:25.406Z,36.46
2024-04-10T12:26:25.114Z,36.59
2024-04-10T12:27:25.313Z,38.24
2024-04-10T12:28:25.039Z,38.54
2024-04-10T12:29:25.322Z,37.24
2024-04-10T12:30:24.991Z,35.83
2024-04-10T12:31:45.231Z,36.87
2024-04-10T12:32:25.024Z,35.96
2024-04-10T12:33:25.296Z,35.16
2024-04-10T12:34:25.093Z,36.19
2024-04-10T12:35:25.187Z,34.66
2024-04-10T12:36:35.313Z,36.24
2024-04-10T12:37:25.019Z,36.12
2024-04-10T12:38:25.256Z,35.24
2024-04-10T12:39:24.960Z,35.64
2024-04-10T12:40:25.193Z,35.64
2024-04-10T12:41:44.957Z,34.64
2024-04-10T12:42:25.160Z,34.92
2024-04-10T12:43:26.831Z,35.10
2024-04-10T12:44:25.176Z,34.38
2024-04-10T12:45:24.830Z,33.69
2024-04-10T12:46:25.642Z,33.69
2024-04-10T12:47:24.831Z,33.18
2024-04-10T12:48:25.079Z,32.51
2024-04-10T12:49:24.771Z,34.22
2024-04-10T12:50:25.017Z,34.33
2024-04-10T12:51:45.183Z,35.33
2024-04-10T12:52:24.913Z,34.63
2024-04-10T12:53:25.192Z,33.75
2024-04-10T12:54:24.885Z,35.56
2024-04-10T12:55:25.112Z,36.07
2024-04-10T12:56:24.859Z,36.79
2024-04-10T12:57:25.075Z,35.97
2024-04-10T12:58:24.782Z,36.07
2024-04-10T12:59:25.080Z,35.97
2024-04-10T13:00:24.782Z,36.18
2024-04-10T13:01:44.099Z,35.39
2024-04-10T13:02:24.147Z,37.60
2024-04-10T13:03:26.361Z,36.52
2024-04-10T13:04:24.649Z,36.52
2024-04-10T13:05:24.711Z,37.14
2024-04-10T13:06:26.024Z,38.36
2024-04-10T13:07:26.049Z,37.68
2024-04-10T13:08:26.074Z,37.77
2024-04-10T13:09:25.526Z,36.96
2024-04-10T13:10:25.977Z,37.56
2024-04-10T13:11:45.878Z,35.85
2024-04-10T13:12:25.975Z,36.15
2024-04-10T13:13:31.506Z,36.26
2024-04-10T13:14:27.019Z,36.93
2024-04-10T13:15:25.924Z,36.51
2024-04-10T13:16:25.922Z,35.77
2024-04-10T13:17:25.782Z,34.38
2024-04-10T13:18:26.504Z,34.08
2024-04-10T13:19:26.174Z,35.08
2024-04-10T13:20:26.613Z,33.42